sensor_id;sensor_type;location;lat;lon;timestamp;P1;durP1;ratioP1;P2;durP2;ratioP2
5428;SDS011;2737;52.386;9.980;2023-07-02T00:02:15;5.83;;;5.23;;
5428;SDS011;2737;52.386;9.980;2023-07-02T00:04:43;16.93;;;5.47;;
5428;SDS011;2737;52.386;9.980;2023-07-02T00:07:10;12.60;;;5.17;;
5428;SDS011;2737;52.386;9.980;2023-07-02T00:09:37;7.47;;;5.13;;
5428;SDS011;2737;52.386;9.980;2023-07-02T00:12:04;14.70;;;6.00;;
5428;SDS011;2737;52.386;9.980;2023-07-02T00:14:33;6.93;;;5.10;;
5428;SDS011;2737;52.386;9.980;2023-07-02T00:17:00;6.03;;;4.93;;
5428;SDS011;2737;52.386;9.980;2023-07-02T00:19:29;6.33;;;5.33;;
5428;SDS011;2737;52.386;9.980;2023-07-02T00:21:56;7.80;;;5.00;;
5428;SDS011;2737;52.386;9.980;2023-07-02T00:24:23;8.27;;;4.40;;
5428;SDS011;2737;52.386;9.980;2023-07-02T00:26:50;10.77;;;4.60;;
5428;SDS011;2737;52.386;9.980;2023-07-02T00:29:17;9.50;;;5.20;;
5428;SDS011;2737;52.386;9.980;2023-07-02T00:31:45;5.37;;;3.63;;
5428;SDS011;2737;52.386;9.980;2023-07-02T00:34:12;7.50;;;4.33;;
5428;SDS011;2737;52.386;9.980;2023-07-02T00:36:39;7.73;;;4.07;;
5428;SDS011;2737;52.386;9.980;2023-07-02T00:39:07;10.70;;;4.03;;
5428;SDS011;2737;52.386;9.980;2023-07-02T00:41:34;5.43;;;3.77;;
5428;SDS011;2737;52.386;9.980;2023-07-02T00:44:01;8.97;;;3.97;;
5428;SDS011;2737;52.386;9.980;2023-07-02T00:46:28;6.93;;;3.50;;
5428;SDS011;2737;52.386;9.980;2023-07-02T00:48:57;4.03;;;3.47;;
5428;SDS011;2737;52.386;9.980;2023-07-02T00:51:27;5.13;;;3.10;;
5428;SDS011;2737;52.386;9.980;2023-07-02T00:53:55;7.17;;;3.57;;
5428;SDS011;2737;52.386;9.980;2023-07-02T00:56:24;12.33;;;3.67;;
5428;SDS011;2737;52.386;9.980;2023-07-02T00:58:52;7.10;;;3.33;;
5428;SDS011;2737;52.386;9.980;2023-07-02T01:01:23;8.97;;;3.33;;
5428;SDS011;2737;52.386;9.980;2023-07-02T01:03:53;5.37;;;3.20;;
5428;SDS011;2737;52.386;9.980;2023-07-02T01:06:24;11.07;;;3.30;;
5428;SDS011;2737;52.386;9.980;2023-07-02T01:08:53;11.50;;;3.10;;
5428;SDS011;2737;52.386;9.980;2023-07-02T01:11:22;6.63;;;3.50;;
5428;SDS011;2737;52.386;9.980;2023-07-02T01:13:53;4.70;;;2.83;;
5428;SDS011;2737;52.386;9.980;2023-07-02T01:16:24;5.40;;;3.47;;
5428;SDS011;2737;52.386;9.980;2023-07-02T01:18:51;5.07;;;2.63;;
5428;SDS011;2737;52.386;9.980;2023-07-02T01:21:22;7.87;;;2.90;;
5428;SDS011;2737;52.386;9.980;2023-07-02T01:23:51;3.87;;;2.90;;
5428;SDS011;2737;52.386;9.980;2023-07-02T01:26:18;6.47;;;3.73;;
5428;SDS011;2737;52.386;9.980;2023-07-02T01:28:45;5.70;;;3.30;;
5428;SDS011;2737;52.386;9.980;2023-07-02T01:31:12;4.90;;;2.87;;
5428;SDS011;2737;52.386;9.980;2023-07-02T01:33:40;5.00;;;2.83;;
5428;SDS011;2737;52.386;9.980;2023-07-02T01:36:07;6.63;;;3.17;;
5428;SDS011;2737;52.386;9.980;2023-07-02T01:38:35;5.73;;;3.03;;
5428;SDS011;2737;52.386;9.980;2023-07-02T01:41:02;6.67;;;3.70;;
5428;SDS011;2737;52.386;9.980;2023-07-02T01:43:29;7.30;;;3.47;;
5428;SDS011;2737;52.386;9.980;2023-07-02T01:45:56;4.00;;;3.17;;
5428;SDS011;2737;52.386;9.980;2023-07-02T01:48:24;8.77;;;3.83;;
5428;SDS011;2737;52.386;9.980;2023-07-02T01:50:52;6.60;;;3.30;;
5428;SDS011;2737;52.386;9.980;2023-07-02T01:53:19;6.90;;;3.17;;
5428;SDS011;2737;52.386;9.980;2023-07-02T01:55:47;7.40;;;3.60;;
5428;SDS011;2737;52.386;9.980;2023-07-02T01:58:14;9.20;;;4.00;;
5428;SDS011;2737;52.386;9.980;2023-07-02T02:00:41;11.73;;;4.70;;
5428;SDS011;2737;52.386;9.980;2023-07-02T02:03:08;5.77;;;3.00;;
5428;SDS011;2737;52.386;9.980;2023-07-02T02:05:35;6.63;;;3.30;;
5428;SDS011;2737;52.386;9.980;2023-07-02T02:08:02;7.70;;;3.60;;
5428;SDS011;2737;52.386;9.980;2023-07-02T02:10:29;9.77;;;3.80;;
5428;SDS011;2737;52.386;9.980;2023-07-02T02:12:58;6.23;;;3.43;;
5428;SDS011;2737;52.386;9.980;2023-07-02T02:15:25;8.77;;;4.43;;
5428;SDS011;2737;52.386;9.980;2023-07-02T02:17:52;20.37;;;4.13;;
5428;SDS011;2737;52.386;9.980;2023-07-02T02:20:19;8.67;;;4.20;;
5428;SDS011;2737;52.386;9.980;2023-07-02T02:22:46;9.47;;;4.77;;
5428;SDS011;2737;52.386;9.980;2023-07-02T02:25:13;10.37;;;4.40;;
5428;SDS011;2737;52.386;9.980;2023-07-02T02:27:40;7.10;;;3.53;;
5428;SDS011;2737;52.386;9.980;2023-07-02T02:30:10;9.93;;;4.53;;
5428;SDS011;2737;52.386;9.980;2023-07-02T02:32:37;6.73;;;4.30;;
5428;SDS011;2737;52.386;9.980;2023-07-02T02:35:04;10.43;;;4.17;;
5428;SDS011;2737;52.386;9.980;2023-07-02T02:37:33;15.00;;;5.67;;
5428;SDS011;2737;52.386;9.980;2023-07-02T02:40:00;14.07;;;4.13;;
5428;SDS011;2737;52.386;9.980;2023-07-02T02:42:28;5.70;;;3.67;;
5428;SDS011;2737;52.386;9.980;2023-07-02T02:44:55;8.17;;;5.53;;
5428;SDS011;2737;52.386;9.980;2023-07-02T02:47:24;9.20;;;4.50;;
5428;SDS011;2737;52.386;9.980;2023-07-02T02:49:51;8.10;;;4.73;;
5428;SDS011;2737;52.386;9.980;2023-07-02T02:52:18;7.93;;;5.10;;
5428;SDS011;2737;52.386;9.980;2023-07-02T02:54:45;8.40;;;5.20;;
5428;SDS011;2737;52.386;9.980;2023-07-02T02:57:12;6.50;;;5.03;;
5428;SDS011;2737;52.386;9.980;2023-07-02T02:59:40;9.53;;;5.13;;
5428;SDS011;2737;52.386;9.980;2023-07-02T03:02:07;6.03;;;5.00;;
5428;SDS011;2737;52.386;9.980;2023-07-02T03:04:35;9.30;;;5.30;;
5428;SDS011;2737;52.386;9.980;2023-07-02T03:07:05;13.10;;;6.23;;
5428;SDS011;2737;52.386;9.980;2023-07-02T03:09:32;6.80;;;4.80;;
5428;SDS011;2737;52.386;9.980;2023-07-02T03:11:59;8.80;;;5.90;;
5428;SDS011;2737;52.386;9.980;2023-07-02T03:14:26;20.40;;;5.43;;
5428;SDS011;2737;52.386;9.980;2023-07-02T03:16:53;7.30;;;5.07;;
5428;SDS011;2737;52.386;9.980;2023-07-02T03:19:20;10.93;;;6.47;;
5428;SDS011;2737;52.386;9.980;2023-07-02T03:21:49;8.10;;;5.60;;
5428;SDS011;2737;52.386;9.980;2023-07-02T03:24:16;12.20;;;5.80;;
5428;SDS011;2737;52.386;9.980;2023-07-02T03:26:44;7.60;;;5.20;;
5428;SDS011;2737;52.386;9.980;2023-07-02T03:29:11;6.20;;;5.23;;
5428;SDS011;2737;52.386;9.980;2023-07-02T03:31:38;12.63;;;5.77;;
5428;SDS011;2737;52.386;9.980;2023-07-02T03:34:06;11.07;;;5.83;;
5428;SDS011;2737;52.386;9.980;2023-07-02T03:36:34;17.07;;;6.23;;
5428;SDS011;2737;52.386;9.980;2023-07-02T03:39:02;8.40;;;5.90;;
5428;SDS011;2737;52.386;9.980;2023-07-02T03:41:29;6.80;;;5.30;;
5428;SDS011;2737;52.386;9.980;2023-07-02T03:43:57;8.20;;;5.00;;
5428;SDS011;2737;52.386;9.980;2023-07-02T03:46:24;12.30;;;5.07;;
5428;SDS011;2737;52.386;9.980;2023-07-02T03:48:51;8.27;;;5.77;;
5428;SDS011;2737;52.386;9.980;2023-07-02T03:51:18;12.33;;;6.07;;
5428;SDS011;2737;52.386;9.980;2023-07-02T03:53:45;11.10;;;6.00;;
5428;SDS011;2737;52.386;9.980;2023-07-02T03:56:13;10.60;;;5.90;;
5428;SDS011;2737;52.386;9.980;2023-07-02T03:58:40;8.40;;;5.73;;
5428;SDS011;2737;52.386;9.980;2023-07-02T04:01:08;6.20;;;5.03;;
5428;SDS011;2737;52.386;9.980;2023-07-02T04:03:35;6.27;;;5.47;;
5428;SDS011;2737;52.386;9.980;2023-07-02T04:06:02;8.23;;;5.97;;
5428;SDS011;2737;52.386;9.980;2023-07-02T04:08:30;6.67;;;5.60;;
5428;SDS011;2737;52.386;9.980;2023-07-02T04:10:58;11.00;;;5.43;;
5428;SDS011;2737;52.386;9.980;2023-07-02T04:13:26;7.50;;;5.43;;
5428;SDS011;2737;52.386;9.980;2023-07-02T04:15:53;8.20;;;5.47;;
5428;SDS011;2737;52.386;9.980;2023-07-02T04:18:20;13.90;;;5.93;;
5428;SDS011;2737;52.386;9.980;2023-07-02T04:20:47;9.20;;;5.70;;
5428;SDS011;2737;52.386;9.980;2023-07-02T04:23:14;9.73;;;5.90;;
5428;SDS011;2737;52.386;9.980;2023-07-02T04:25:41;9.27;;;5.37;;
5428;SDS011;2737;52.386;9.980;2023-07-02T04:28:08;8.93;;;5.90;;
5428;SDS011;2737;52.386;9.980;2023-07-02T04:30:36;11.77;;;5.83;;
5428;SDS011;2737;52.386;9.980;2023-07-02T04:33:03;10.00;;;5.50;;
5428;SDS011;2737;52.386;9.980;2023-07-02T04:35:31;9.80;;;5.93;;
5428;SDS011;2737;52.386;9.980;2023-07-02T04:37:59;11.83;;;5.40;;
5428;SDS011;2737;52.386;9.980;2023-07-02T04:40:26;11.93;;;5.90;;
5428;SDS011;2737;52.386;9.980;2023-07-02T04:42:54;19.20;;;6.00;;
5428;SDS011;2737;52.386;9.980;2023-07-02T04:45:24;9.43;;;6.50;;
5428;SDS011;2737;52.386;9.980;2023-07-02T04:47:53;13.30;;;6.67;;
5428;SDS011;2737;52.386;9.980;2023-07-02T04:50:20;9.03;;;6.00;;
5428;SDS011;2737;52.386;9.980;2023-07-02T04:52:47;10.73;;;6.87;;
5428;SDS011;2737;52.386;9.980;2023-07-02T04:55:14;15.20;;;6.40;;
5428;SDS011;2737;52.386;9.980;2023-07-02T04:57:41;11.17;;;5.90;;
5428;SDS011;2737;52.386;9.980;2023-07-02T05:00:10;8.03;;;5.90;;
5428;SDS011;2737;52.386;9.980;2023-07-02T05:02:38;10.80;;;5.63;;
5428;SDS011;2737;52.386;9.980;2023-07-02T05:05:07;14.37;;;5.57;;
5428;SDS011;2737;52.386;9.980;2023-07-02T05:07:34;8.50;;;5.40;;
5428;SDS011;2737;52.386;9.980;2023-07-02T05:10:01;11.80;;;6.00;;
5428;SDS011;2737;52.386;9.980;2023-07-02T05:12:28;11.87;;;5.83;;
5428;SDS011;2737;52.386;9.980;2023-07-02T05:14:56;9.57;;;5.40;;
5428;SDS011;2737;52.386;9.980;2023-07-02T05:17:23;16.60;;;5.20;;
5428;SDS011;2737;52.386;9.980;2023-07-02T05:19:50;14.03;;;5.13;;
5428;SDS011;2737;52.386;9.980;2023-07-02T05:22:19;13.23;;;4.90;;
5428;SDS011;2737;52.386;9.980;2023-07-02T05:24:46;12.00;;;5.30;;
5428;SDS011;2737;52.386;9.980;2023-07-02T05:27:13;10.37;;;5.20;;
5428;SDS011;2737;52.386;9.980;2023-07-02T05:29:43;10.47;;;4.67;;
5428;SDS011;2737;52.386;9.980;2023-07-02T05:32:10;14.13;;;5.10;;
5428;SDS011;2737;52.386;9.980;2023-07-02T05:34:37;10.80;;;4.97;;
5428;SDS011;2737;52.386;9.980;2023-07-02T05:37:04;11.40;;;5.60;;
5428;SDS011;2737;52.386;9.980;2023-07-02T05:39:34;11.30;;;5.23;;
5428;SDS011;2737;52.386;9.980;2023-07-02T05:42:01;13.93;;;5.50;;
5428;SDS011;2737;52.386;9.980;2023-07-02T05:44:28;15.23;;;5.77;;
5428;SDS011;2737;52.386;9.980;2023-07-02T05:46:55;11.97;;;5.17;;
5428;SDS011;2737;52.386;9.980;2023-07-02T05:49:22;9.63;;;5.30;;
5428;SDS011;2737;52.386;9.980;2023-07-02T05:51:51;15.10;;;5.47;;
5428;SDS011;2737;52.386;9.980;2023-07-02T05:54:18;16.87;;;5.90;;
5428;SDS011;2737;52.386;9.980;2023-07-02T05:56:47;24.33;;;5.47;;
5428;SDS011;2737;52.386;9.980;2023-07-02T05:59:14;12.10;;;4.90;;
5428;SDS011;2737;52.386;9.980;2023-07-02T06:01:44;11.13;;;4.50;;
5428;SDS011;2737;52.386;9.980;2023-07-02T06:04:11;8.47;;;4.57;;
5428;SDS011;2737;52.386;9.980;2023-07-02T06:06:38;14.03;;;5.60;;
5428;SDS011;2737;52.386;9.980;2023-07-02T06:09:05;17.57;;;5.80;;
5428;SDS011;2737;52.386;9.980;2023-07-02T06:11:32;16.37;;;5.93;;
5428;SDS011;2737;52.386;9.980;2023-07-02T06:14:01;11.13;;;5.40;;
5428;SDS011;2737;52.386;9.980;2023-07-02T06:16:29;12.07;;;5.50;;
5428;SDS011;2737;52.386;9.980;2023-07-02T06:18:56;10.23;;;5.53;;
5428;SDS011;2737;52.386;9.980;2023-07-02T06:21:23;14.40;;;5.83;;
5428;SDS011;2737;52.386;9.980;2023-07-02T06:23:54;13.10;;;4.80;;
5428;SDS011;2737;52.386;9.980;2023-07-02T06:26:22;16.20;;;6.00;;
5428;SDS011;2737;52.386;9.980;2023-07-02T06:28:49;17.23;;;4.80;;
5428;SDS011;2737;52.386;9.980;2023-07-02T06:31:17;13.50;;;5.00;;
5428;SDS011;2737;52.386;9.980;2023-07-02T06:33:44;17.30;;;4.50;;
5428;SDS011;2737;52.386;9.980;2023-07-02T06:36:12;13.40;;;4.80;;
5428;SDS011;2737;52.386;9.980;2023-07-02T06:38:39;14.63;;;5.10;;
5428;SDS011;2737;52.386;9.980;2023-07-02T06:41:06;20.30;;;5.50;;
5428;SDS011;2737;52.386;9.980;2023-07-02T06:43:33;21.47;;;5.97;;
5428;SDS011;2737;52.386;9.980;2023-07-02T06:46:00;13.57;;;5.70;;
5428;SDS011;2737;52.386;9.980;2023-07-02T06:48:29;18.07;;;5.37;;
5428;SDS011;2737;52.386;9.980;2023-07-02T06:50:56;14.20;;;5.40;;
5428;SDS011;2737;52.386;9.980;2023-07-02T06:53:23;19.10;;;5.60;;
5428;SDS011;2737;52.386;9.980;2023-07-02T06:55:50;21.03;;;6.10;;
5428;SDS011;2737;52.386;9.980;2023-07-02T06:58:17;19.70;;;5.20;;
5428;SDS011;2737;52.386;9.980;2023-07-02T07:00:44;13.03;;;5.03;;
5428;SDS011;2737;52.386;9.980;2023-07-02T07:03:11;15.00;;;5.03;;
5428;SDS011;2737;52.386;9.980;2023-07-02T07:05:40;13.83;;;5.80;;
5428;SDS011;2737;52.386;9.980;2023-07-02T07:08:07;15.10;;;5.30;;
5428;SDS011;2737;52.386;9.980;2023-07-02T07:10:34;24.10;;;5.70;;
5428;SDS011;2737;52.386;9.980;2023-07-02T07:13:01;16.87;;;5.20;;
5428;SDS011;2737;52.386;9.980;2023-07-02T07:15:29;14.43;;;5.00;;
5428;SDS011;2737;52.386;9.980;2023-07-02T07:17:59;15.80;;;5.40;;
5428;SDS011;2737;52.386;9.980;2023-07-02T07:20:26;16.43;;;4.83;;
5428;SDS011;2737;52.386;9.980;2023-07-02T07:22:54;18.80;;;5.57;;
5428;SDS011;2737;52.386;9.980;2023-07-02T07:25:21;16.73;;;5.10;;
5428;SDS011;2737;52.386;9.980;2023-07-02T07:27:48;14.73;;;5.60;;
5428;SDS011;2737;52.386;9.980;2023-07-02T07:30:15;12.90;;;4.90;;
5428;SDS011;2737;52.386;9.980;2023-07-02T07:32:47;16.93;;;5.33;;
5428;SDS011;2737;52.386;9.980;2023-07-02T07:35:15;18.17;;;5.10;;
5428;SDS011;2737;52.386;9.980;2023-07-02T07:37:42;18.67;;;5.70;;
5428;SDS011;2737;52.386;9.980;2023-07-02T07:40:11;16.37;;;5.53;;
5428;SDS011;2737;52.386;9.980;2023-07-02T07:42:38;15.13;;;4.87;;
5428;SDS011;2737;52.386;9.980;2023-07-02T07:45:06;16.53;;;5.17;;
5428;SDS011;2737;52.386;9.980;2023-07-02T07:47:33;20.53;;;4.90;;
5428;SDS011;2737;52.386;9.980;2023-07-02T07:50:00;15.97;;;5.67;;
5428;SDS011;2737;52.386;9.980;2023-07-02T07:52:27;13.67;;;4.90;;
5428;SDS011;2737;52.386;9.980;2023-07-02T07:54:54;13.53;;;5.03;;
5428;SDS011;2737;52.386;9.980;2023-07-02T07:57:23;15.73;;;4.77;;
5428;SDS011;2737;52.386;9.980;2023-07-02T07:59:51;19.33;;;6.47;;
5428;SDS011;2737;52.386;9.980;2023-07-02T08:02:21;22.33;;;5.33;;
5428;SDS011;2737;52.386;9.980;2023-07-02T08:04:48;19.13;;;5.80;;
5428;SDS011;2737;52.386;9.980;2023-07-02T08:07:15;13.30;;;6.00;;
5428;SDS011;2737;52.386;9.980;2023-07-02T08:09:42;16.63;;;5.70;;
5428;SDS011;2737;52.386;9.980;2023-07-02T08:12:09;18.50;;;5.97;;
5428;SDS011;2737;52.386;9.980;2023-07-02T08:14:38;20.27;;;6.50;;
5428;SDS011;2737;52.386;9.980;2023-07-02T08:17:05;10.80;;;5.00;;
5428;SDS011;2737;52.386;9.980;2023-07-02T08:19:32;16.53;;;6.47;;
5428;SDS011;2737;52.386;9.980;2023-07-02T08:21:59;19.00;;;5.93;;
5428;SDS011;2737;52.386;9.980;2023-07-02T08:24:26;17.03;;;6.40;;
5428;SDS011;2737;52.386;9.980;2023-07-02T08:26:55;18.27;;;6.67;;
5428;SDS011;2737;52.386;9.980;2023-07-02T08:29:28;20.07;;;6.13;;
5428;SDS011;2737;52.386;9.980;2023-07-02T08:31:57;17.10;;;5.80;;
5428;SDS011;2737;52.386;9.980;2023-07-02T08:34:24;15.37;;;5.50;;
5428;SDS011;2737;52.386;9.980;2023-07-02T08:36:51;18.83;;;6.00;;
5428;SDS011;2737;52.386;9.980;2023-07-02T08:39:18;23.87;;;7.30;;
5428;SDS011;2737;52.386;9.980;2023-07-02T08:41:45;18.20;;;6.63;;
5428;SDS011;2737;52.386;9.980;2023-07-02T08:44:14;23.50;;;6.20;;
5428;SDS011;2737;52.386;9.980;2023-07-02T08:46:43;16.50;;;5.50;;
5428;SDS011;2737;52.386;9.980;2023-07-02T08:49:13;15.00;;;5.47;;
5428;SDS011;2737;52.386;9.980;2023-07-02T08:51:40;20.63;;;6.13;;
5428;SDS011;2737;52.386;9.980;2023-07-02T08:54:11;15.13;;;5.97;;
5428;SDS011;2737;52.386;9.980;2023-07-02T08:56:38;18.20;;;6.40;;
5428;SDS011;2737;52.386;9.980;2023-07-02T08:59:06;15.60;;;5.80;;
5428;SDS011;2737;52.386;9.980;2023-07-02T09:01:43;10.53;;;4.73;;
5428;SDS011;2737;52.386;9.980;2023-07-02T09:04:15;21.60;;;5.43;;
5428;SDS011;2737;52.386;9.980;2023-07-02T09:06:43;12.53;;;5.47;;
5428;SDS011;2737;52.386;9.980;2023-07-02T09:09:10;21.87;;;6.47;;
5428;SDS011;2737;52.386;9.980;2023-07-02T09:11:46;13.70;;;5.40;;
5428;SDS011;2737;52.386;9.980;2023-07-02T09:14:23;14.77;;;6.07;;
5428;SDS011;2737;52.386;9.980;2023-07-02T09:17:00;17.97;;;5.27;;
5428;SDS011;2737;52.386;9.980;2023-07-02T09:19:30;12.93;;;5.23;;
5428;SDS011;2737;52.386;9.980;2023-07-02T09:21:57;17.70;;;5.50;;
5428;SDS011;2737;52.386;9.980;2023-07-02T09:24:26;24.20;;;5.97;;
5428;SDS011;2737;52.386;9.980;2023-07-02T09:26:54;16.70;;;5.33;;
5428;SDS011;2737;52.386;9.980;2023-07-02T09:29:23;20.40;;;5.93;;
5428;SDS011;2737;52.386;9.980;2023-07-02T09:31:52;21.80;;;5.90;;
5428;SDS011;2737;52.386;9.980;2023-07-02T09:34:19;13.00;;;5.40;;
5428;SDS011;2737;52.386;9.980;2023-07-02T09:36:47;17.50;;;5.80;;
5428;SDS011;2737;52.386;9.980;2023-07-02T09:39:19;14.80;;;6.43;;
5428;SDS011;2737;52.386;9.980;2023-07-02T09:41:53;22.47;;;6.53;;
5428;SDS011;2737;52.386;9.980;2023-07-02T09:44:21;13.20;;;6.33;;
5428;SDS011;2737;52.386;9.980;2023-07-02T09:46:52;10.23;;;5.43;;
5428;SDS011;2737;52.386;9.980;2023-07-02T09:49:24;18.33;;;5.30;;
5428;SDS011;2737;52.386;9.980;2023-07-02T09:51:53;15.03;;;5.33;;
5428;SDS011;2737;52.386;9.980;2023-07-02T09:54:20;15.00;;;5.63;;
5428;SDS011;2737;52.386;9.980;2023-07-02T09:56:47;17.73;;;5.53;;
5428;SDS011;2737;52.386;9.980;2023-07-02T09:59:14;15.00;;;6.20;;
5428;SDS011;2737;52.386;9.980;2023-07-02T10:01:41;13.73;;;5.70;;
5428;SDS011;2737;52.386;9.980;2023-07-02T10:04:12;15.80;;;6.57;;
5428;SDS011;2737;52.386;9.980;2023-07-02T10:06:49;15.23;;;6.00;;
5428;SDS011;2737;52.386;9.980;2023-07-02T10:09:19;20.40;;;6.30;;
5428;SDS011;2737;52.386;9.980;2023-07-02T10:11:46;28.80;;;6.07;;
5428;SDS011;2737;52.386;9.980;2023-07-02T10:14:14;17.30;;;5.90;;
5428;SDS011;2737;52.386;9.980;2023-07-02T10:16:51;18.20;;;6.37;;
5428;SDS011;2737;52.386;9.980;2023-07-02T10:19:18;11.30;;;5.53;;
5428;SDS011;2737;52.386;9.980;2023-07-02T10:21:47;12.90;;;5.73;;
5428;SDS011;2737;52.386;9.980;2023-07-02T10:24:28;17.03;;;6.43;;
5428;SDS011;2737;52.386;9.980;2023-07-02T10:26:56;16.20;;;5.60;;
5428;SDS011;2737;52.386;9.980;2023-07-02T10:29:25;14.03;;;6.13;;
5428;SDS011;2737;52.386;9.980;2023-07-02T10:31:54;18.37;;;5.40;;
5428;SDS011;2737;52.386;9.980;2023-07-02T10:34:31;19.83;;;5.33;;
5428;SDS011;2737;52.386;9.980;2023-07-02T10:37:00;13.83;;;5.50;;
5428;SDS011;2737;52.386;9.980;2023-07-02T10:39:29;10.40;;;5.07;;
5428;SDS011;2737;52.386;9.980;2023-07-02T10:42:03;20.07;;;6.13;;
5428;SDS011;2737;52.386;9.980;2023-07-02T10:44:30;13.37;;;5.53;;
5428;SDS011;2737;52.386;9.980;2023-07-02T10:46:58;12.60;;;5.90;;
5428;SDS011;2737;52.386;9.980;2023-07-02T10:49:29;14.90;;;5.57;;
5428;SDS011;2737;52.386;9.980;2023-07-02T10:51:58;9.00;;;4.60;;
5428;SDS011;2737;52.386;9.980;2023-07-02T10:54:25;14.93;;;5.40;;
5428;SDS011;2737;52.386;9.980;2023-07-02T10:56:57;12.33;;;4.60;;
5428;SDS011;2737;52.386;9.980;2023-07-02T10:59:24;8.60;;;4.90;;
5428;SDS011;2737;52.386;9.980;2023-07-02T11:01:51;14.00;;;5.43;;
5428;SDS011;2737;52.386;9.980;2023-07-02T11:04:20;9.17;;;4.80;;
5428;SDS011;2737;52.386;9.980;2023-07-02T11:06:48;13.10;;;5.07;;
5428;SDS011;2737;52.386;9.980;2023-07-02T11:09:16;17.13;;;5.33;;
5428;SDS011;2737;52.386;9.980;2023-07-02T11:11:49;13.53;;;6.03;;
5428;SDS011;2737;52.386;9.980;2023-07-02T11:14:27;16.20;;;5.83;;
5428;SDS011;2737;52.386;9.980;2023-07-02T11:16:54;17.33;;;5.30;;
5428;SDS011;2737;52.386;9.980;2023-07-02T11:19:22;11.03;;;5.57;;
5428;SDS011;2737;52.386;9.980;2023-07-02T11:21:50;16.57;;;5.50;;
5428;SDS011;2737;52.386;9.980;2023-07-02T11:24:26;20.43;;;5.90;;
5428;SDS011;2737;52.386;9.980;2023-07-02T11:26:54;22.90;;;5.77;;
5428;SDS011;2737;52.386;9.980;2023-07-02T11:29:21;14.73;;;5.77;;
5428;SDS011;2737;52.386;9.980;2023-07-02T11:31:50;12.10;;;5.13;;
5428;SDS011;2737;52.386;9.980;2023-07-02T11:34:17;16.00;;;4.70;;
5428;SDS011;2737;52.386;9.980;2023-07-02T11:36:47;13.60;;;4.90;;
5428;SDS011;2737;52.386;9.980;2023-07-02T11:39:15;12.93;;;5.30;;
5428;SDS011;2737;52.386;9.980;2023-07-02T11:41:43;25.83;;;5.30;;
5428;SDS011;2737;52.386;9.980;2023-07-02T11:44:11;10.70;;;4.93;;
5428;SDS011;2737;52.386;9.980;2023-07-02T11:46:38;16.40;;;4.93;;
5428;SDS011;2737;52.386;9.980;2023-07-02T11:49:06;14.30;;;5.00;;
5428;SDS011;2737;52.386;9.980;2023-07-02T11:51:34;10.70;;;4.70;;
5428;SDS011;2737;52.386;9.980;2023-07-02T11:54:04;15.00;;;6.30;;
5428;SDS011;2737;52.386;9.980;2023-07-02T11:56:32;19.90;;;6.00;;
5428;SDS011;2737;52.386;9.980;2023-07-02T11:58:59;13.43;;;5.20;;
5428;SDS011;2737;52.386;9.980;2023-07-02T12:01:26;10.53;;;5.20;;
5428;SDS011;2737;52.386;9.980;2023-07-02T12:03:53;17.00;;;5.50;;
5428;SDS011;2737;52.386;9.980;2023-07-02T12:06:22;11.43;;;4.93;;
5428;SDS011;2737;52.386;9.980;2023-07-02T12:08:51;10.90;;;4.80;;
5428;SDS011;2737;52.386;9.980;2023-07-02T12:11:19;11.30;;;4.67;;
5428;SDS011;2737;52.386;9.980;2023-07-02T12:13:46;18.47;;;5.90;;
5428;SDS011;2737;52.386;9.980;2023-07-02T12:16:12;19.40;;;5.47;;
5428;SDS011;2737;52.386;9.980;2023-07-02T12:18:40;10.97;;;4.97;;
5428;SDS011;2737;52.386;9.980;2023-07-02T12:21:07;16.23;;;5.70;;
5428;SDS011;2737;52.386;9.980;2023-07-02T12:23:36;13.00;;;4.93;;
5428;SDS011;2737;52.386;9.980;2023-07-02T12:26:03;12.33;;;5.10;;
5428;SDS011;2737;52.386;9.980;2023-07-02T12:28:30;12.90;;;4.47;;
5428;SDS011;2737;52.386;9.980;2023-07-02T12:30:57;11.83;;;4.63;;
5428;SDS011;2737;52.386;9.980;2023-07-02T12:33:24;16.37;;;4.77;;
5428;SDS011;2737;52.386;9.980;2023-07-02T12:35:51;10.13;;;4.10;;
5428;SDS011;2737;52.386;9.980;2023-07-02T12:38:18;9.70;;;4.07;;
5428;SDS011;2737;52.386;9.980;2023-07-02T12:40:47;9.63;;;4.40;;
5428;SDS011;2737;52.386;9.980;2023-07-02T12:43:14;14.27;;;5.10;;
5428;SDS011;2737;52.386;9.980;2023-07-02T12:45:41;10.00;;;4.83;;
5428;SDS011;2737;52.386;9.980;2023-07-02T12:48:08;7.90;;;4.40;;
5428;SDS011;2737;52.386;9.980;2023-07-02T12:50:36;11.40;;;4.93;;
5428;SDS011;2737;52.386;9.980;2023-07-02T12:53:04;11.27;;;4.50;;
5428;SDS011;2737;52.386;9.980;2023-07-02T12:55:31;10.63;;;4.90;;
5428;SDS011;2737;52.386;9.980;2023-07-02T12:57:59;12.93;;;5.33;;
5428;SDS011;2737;52.386;9.980;2023-07-02T13:00:26;14.37;;;4.80;;
5428;SDS011;2737;52.386;9.980;2023-07-02T13:02:53;15.60;;;5.23;;
5428;SDS011;2737;52.386;9.980;2023-07-02T13:05:20;8.93;;;4.77;;
5428;SDS011;2737;52.386;9.980;2023-07-02T13:07:47;8.70;;;4.40;;
5428;SDS011;2737;52.386;9.980;2023-07-02T13:10:14;19.37;;;5.27;;
5428;SDS011;2737;52.386;9.980;2023-07-02T13:12:42;12.00;;;3.63;;
5428;SDS011;2737;52.386;9.980;2023-07-02T13:15:12;15.17;;;4.87;;
5428;SDS011;2737;52.386;9.980;2023-07-02T13:17:39;13.60;;;4.17;;
5428;SDS011;2737;52.386;9.980;2023-07-02T13:20:09;9.80;;;4.57;;
5428;SDS011;2737;52.386;9.980;2023-07-02T13:22:36;11.30;;;4.20;;
5428;SDS011;2737;52.386;9.980;2023-07-02T13:25:03;8.90;;;4.30;;
5428;SDS011;2737;52.386;9.980;2023-07-02T13:27:31;11.80;;;5.13;;
5428;SDS011;2737;52.386;9.980;2023-07-02T13:29:59;13.27;;;4.57;;
5428;SDS011;2737;52.386;9.980;2023-07-02T13:32:27;12.17;;;4.77;;
5428;SDS011;2737;52.386;9.980;2023-07-02T13:34:54;11.80;;;5.00;;
5428;SDS011;2737;52.386;9.980;2023-07-02T13:37:21;13.90;;;5.60;;
5428;SDS011;2737;52.386;9.980;2023-07-02T13:39:48;12.27;;;4.73;;
5428;SDS011;2737;52.386;9.980;2023-07-02T13:42:16;9.23;;;4.17;;
5428;SDS011;2737;52.386;9.980;2023-07-02T13:44:43;11.00;;;4.63;;
5428;SDS011;2737;52.386;9.980;2023-07-02T13:47:10;7.53;;;3.90;;
5428;SDS011;2737;52.386;9.980;2023-07-02T13:49:38;12.17;;;4.03;;
5428;SDS011;2737;52.386;9.980;2023-07-02T13:52:06;14.43;;;5.67;;
5428;SDS011;2737;52.386;9.980;2023-07-02T13:54:33;17.07;;;5.77;;
5428;SDS011;2737;52.386;9.980;2023-07-02T13:57:00;7.37;;;3.93;;
5428;SDS011;2737;52.386;9.980;2023-07-02T13:59:29;9.37;;;4.53;;
5428;SDS011;2737;52.386;9.980;2023-07-02T14:01:56;10.80;;;4.33;;
5428;SDS011;2737;52.386;9.980;2023-07-02T14:04:23;13.07;;;4.53;;
5428;SDS011;2737;52.386;9.980;2023-07-02T14:06:50;8.50;;;4.43;;
5428;SDS011;2737;52.386;9.980;2023-07-02T14:09:17;12.83;;;4.37;;
5428;SDS011;2737;52.386;9.980;2023-07-02T14:11:44;6.83;;;3.57;;
5428;SDS011;2737;52.386;9.980;2023-07-02T14:14:11;12.23;;;4.23;;
5428;SDS011;2737;52.386;9.980;2023-07-02T14:16:39;12.33;;;4.13;;
5428;SDS011;2737;52.386;9.980;2023-07-02T14:19:07;11.70;;;3.80;;
5428;SDS011;2737;52.386;9.980;2023-07-02T14:21:34;11.80;;;4.50;;
5428;SDS011;2737;52.386;9.980;2023-07-02T14:24:01;11.97;;;4.27;;
5428;SDS011;2737;52.386;9.980;2023-07-02T14:26:28;12.43;;;4.50;;
5428;SDS011;2737;52.386;9.980;2023-07-02T14:28:55;11.30;;;4.13;;
5428;SDS011;2737;52.386;9.980;2023-07-02T14:31:23;12.90;;;4.60;;
5428;SDS011;2737;52.386;9.980;2023-07-02T14:33:51;8.73;;;3.60;;
5428;SDS011;2737;52.386;9.980;2023-07-02T14:36:19;8.73;;;3.90;;
5428;SDS011;2737;52.386;9.980;2023-07-02T14:38:48;7.40;;;4.37;;
5428;SDS011;2737;52.386;9.980;2023-07-02T14:41:15;9.57;;;4.53;;
5428;SDS011;2737;52.386;9.980;2023-07-02T14:43:43;11.80;;;4.07;;
5428;SDS011;2737;52.386;9.980;2023-07-02T14:46:10;11.57;;;3.97;;
5428;SDS011;2737;52.386;9.980;2023-07-02T14:48:37;15.63;;;4.00;;
5428;SDS011;2737;52.386;9.980;2023-07-02T14:51:07;12.60;;;4.73;;
5428;SDS011;2737;52.386;9.980;2023-07-02T14:53:34;12.47;;;4.27;;
5428;SDS011;2737;52.386;9.980;2023-07-02T14:56:01;8.97;;;4.00;;
5428;SDS011;2737;52.386;9.980;2023-07-02T14:58:30;11.93;;;4.27;;
5428;SDS011;2737;52.386;9.980;2023-07-02T15:00:58;7.70;;;4.20;;
5428;SDS011;2737;52.386;9.980;2023-07-02T15:03:28;9.37;;;4.03;;
5428;SDS011;2737;52.386;9.980;2023-07-02T15:06:04;9.50;;;3.93;;
5428;SDS011;2737;52.386;9.980;2023-07-02T15:08:34;16.20;;;4.27;;
5428;SDS011;2737;52.386;9.980;2023-07-02T15:11:01;8.87;;;3.67;;